Time;durP1;ratioP1;P1;durP2;ratioP2;P2;SDS_P1;SDS_P2;PMS_P1;PMS_P2;Temp;Humidity;BMP_temperature;BMP_pressure;BME280_temperature;BME280_humidity;BME280_pressure;Samples;Min_cycle;Max_cycle;Signal;HPM_P1;HPM_P2
2022/12/12 00:00:45;;;;;;;;;;;1.20;91.20;;;;;;5072526;28;20078;-89
2022/12/12 00:03:11;;;;;;;;;;;1.10;91.30;;;;;;5072248;28;19991;-89
2022/12/12 00:05:37;;;;;;;;;;;1.00;91.60;;;;;;5072501;28;19939;-89
2022/12/12 00:08:02;;;;;;;;;;;1.00;91.80;;;;;;5075447;28;19943;-89
2022/12/12 00:10:28;;;;;;;;;;;1.10;92.00;;;;;;5076079;28;20354;-89
2022/12/12 00:12:54;;;;;;;;;;;1.00;92.20;;;;;;5075585;28;19961;-89
2022/12/12 00:15:20;;;;;;;;;;;1.10;92.70;;;;;;5075929;28;20503;-89
2022/12/12 00:17:45;;;;;;;;;;;1.20;92.70;;;;;;5075991;28;19937;-90
2022/12/12 00:20:11;;;;;;;;;;;1.20;92.70;;;;;;5075992;28;20477;-89
2022/12/12 00:22:36;;;;;;;;;;;1.20;92.70;;;;;;5057493;28;19976;-90
2022/12/12 00:25:03;;;;;;;;;;;1.20;92.70;;;;;;5075866;28;19939;-89
2022/12/12 00:27:30;;;;;;;;;;;1.10;92.50;;;;;;5075768;28;19941;-89
2022/12/12 00:29:55;;;;;;;;;;;1.10;92.60;;;;;;5075772;28;19994;-89
2022/12/12 00:32:21;;;;;;;;;;;1.10;92.30;;;;;;5075490;28;20025;-89
2022/12/12 00:34:46;;;;;;;;;;;1.10;92.30;;;;;;5075676;28;19945;-90
2022/12/12 00:37:12;;;;;;;;;;;1.10;92.40;;;;;;5075649;28;20067;-90
2022/12/12 00:39:37;;;;;;;;;;;1.20;92.40;;;;;;5075619;28;19938;-90
2022/12/12 00:42:03;;;;;;;;;;;1.30;92.10;;;;;;5075826;28;19953;-90
2022/12/12 00:44:28;;;;;;;;;;;1.30;91.90;;;;;;5075143;28;20425;-90
2022/12/12 00:46:54;;;;;;;;;;;1.40;91.70;;;;;;5075803;28;20408;-89
2022/12/12 00:49:19;;;;;;;;;;;1.50;91.20;;;;;;5075394;28;19937;-89
2022/12/12 00:51:45;;;;;;;;;;;1.60;90.20;;;;;;5075044;28;19993;-88
2022/12/12 00:54:11;;;;;;;;;;;1.40;90.40;;;;;;5075267;28;19943;-88
2022/12/12 00:56:38;;;;;;;;;;;1.20;90.10;;;;;;5075234;28;20005;-88
2022/12/12 00:59:03;;;;;;;;;;;1.20;90.10;;;;;;5075216;28;20423;-88
2022/12/12 01:01:30;;;;;;;;;;;1.10;90.10;;;;;;5075195;28;19956;-88
2022/12/12 01:03:56;;;;;;;;;;;1.10;90.00;;;;;;5075184;28;19943;-88
2022/12/12 01:06:22;;;;;;;;;;;1.10;89.30;;;;;;5075156;28;19959;-88
2022/12/12 01:08:47;;;;;;;;;;;1.00;88.90;;;;;;5075015;28;20437;-89
2022/12/12 01:11:13;;;;;;;;;;;1.00;89.10;;;;;;5074586;28;19949;-89
2022/12/12 01:13:40;;;;;;;;;;;0.90;89.00;;;;;;5074779;28;20317;-88
2022/12/12 01:16:06;;;;;;;;;;;0.80;89.10;;;;;;5074859;28;20539;-89
2022/12/12 01:18:32;;;;;;;;;;;0.80;89.10;;;;;;5073867;28;19947;-89
2022/12/12 01:20:57;;;;;;;;;;;0.60;89.30;;;;;;5074680;28;19977;-88
2022/12/12 01:23:23;;;;;;;;;;;0.50;89.60;;;;;;5074750;28;20396;-89
2022/12/12 01:25:48;;;;;;;;;;;0.50;90.10;;;;;;5074653;28;19938;-89
2022/12/12 01:28:14;;;;;;;;;;;0.50;90.10;;;;;;5074642;28;19950;-89
2022/12/12 01:30:39;;;;;;;;;;;0.50;90.20;;;;;;5074635;28;19985;-89
2022/12/12 01:33:05;;;;;;;;;;;0.50;90.10;;;;;;5074583;28;20223;-89
2022/12/12 01:35:32;;;;;;;;;;;0.50;90.30;;;;;;5074435;28;20412;-88
2022/12/12 01:37:57;;;;;;;;;;;0.50;90.60;;;;;;5074400;28;19941;-89
2022/12/12 01:40:24;;;;;;;;;;;0.60;90.30;;;;;;5074448;28;20029;-89
2022/12/12 01:42:50;;;;;;;;;;;0.60;90.20;;;;;;5074368;28;19935;-89
2022/12/12 01:45:34;;;;;;;;;;;0.60;90.70;;;;;;5074259;28;19938;-88
2022/12/12 01:48:00;;;;;;;;;;;0.50;90.90;;;;;;5074258;28;19961;-88
2022/12/12 01:50:25;;;;;;;;;;;0.60;89.90;;;;;;5074236;28;19939;-89
2022/12/12 01:52:51;;;;;;;;;;;0.60;89.70;;;;;;5074076;28;20100;-88
2022/12/12 01:55:19;;;;;;;;;;;0.60;89.80;;;;;;5073987;28;20434;-89
2022/12/12 01:57:47;;;;;;;;;;;0.60;90.00;;;;;;5074070;28;19948;-89
2022/12/12 02:00:13;;;;;;;;;;;0.60;89.90;;;;;;5074240;28;19939;-88
2022/12/12 02:02:40;;;;;;;;;;;0.50;89.70;;;;;;5073907;28;20020;-89
2022/12/12 02:05:11;;;;;;;;;;;0.60;89.50;;;;;;5073870;28;19943;-89
2022/12/12 02:07:36;;;;;;;;;;;0.50;89.50;;;;;;5073862;28;19943;-89
2022/12/12 02:10:02;;;;;;;;;;;0.50;89.50;;;;;;5073871;28;20283;-88
2022/12/12 02:12:27;;;;;;;;;;;0.50;89.50;;;;;;5073747;28;19991;-89
2022/12/12 02:14:53;;;;;;;;;;;0.50;89.80;;;;;;5055738;28;19954;-89
2022/12/12 02:17:19;;;;;;;;;;;0.50;88.90;;;;;;5055794;28;19948;-89
2022/12/12 02:19:50;;;;;;;;;;;0.60;87.80;;;;;;5073706;28;19955;-89
2022/12/12 02:22:32;;;;;;;;;;;0.60;86.80;;;;;;5081149;22;20512;-88
2022/12/12 02:25:10;;;;;;;;;;;0.70;86.30;;;;;;5073541;28;19943;-89
2022/12/12 02:27:46;;;;;;;;;;;0.70;86.30;;;;;;5073548;28;19937;-89
2022/12/12 02:30:12;;;;;;;;;;;0.60;86.60;;;;;;5038791;28;19951;-89
2022/12/12 02:32:37;;;;;;;;;;;0.60;86.40;;;;;;5073509;28;19939;-89
2022/12/12 02:35:19;;;;;;;;;;;0.60;86.80;;;;;;5073322;28;19989;-89
2022/12/12 02:37:51;;;;;;;;;;;0.50;87.00;;;;;;5073403;28;19996;-89
2022/12/12 02:40:23;;;;;;;;;;;0.50;86.80;;;;;;5055356;28;20434;-89
2022/12/12 02:42:54;;;;;;;;;;;0.60;86.70;;;;;;5073320;28;19937;-89
2022/12/12 02:45:26;;;;;;;;;;;0.90;85.70;;;;;;5073294;28;19938;-89
2022/12/12 02:48:02;;;;;;;;;;;1.00;84.70;;;;;;5073314;28;19975;-89
2022/12/12 02:50:29;;;;;;;;;;;1.00;84.30;;;;;;5073251;28;20078;-89
2022/12/12 02:52:55;;;;;;;;;;;1.00;84.00;;;;;;5073034;28;19941;-89
2022/12/12 02:55:20;;;;;;;;;;;0.80;84.50;;;;;;5073087;28;19961;-89
2022/12/12 02:57:47;;;;;;;;;;;0.80;84.20;;;;;;5073188;28;20389;-89
2022/12/12 03:00:14;;;;;;;;;;;0.70;84.10;;;;;;5072920;28;19949;-89
2022/12/12 03:09:04;;;;;;;;;;;0.60;84.60;;;;;;5073085;28;19947;-89
2022/12/12 03:11:29;;;;;;;;;;;0.40;85.10;;;;;;5073226;28;20042;-89
2022/12/12 03:13:58;;;;;;;;;;;0.20;85.40;;;;;;5073005;28;20413;-89
2022/12/12 03:16:27;;;;;;;;;;;0.10;86.00;;;;;;5072891;28;19980;-90
2022/12/12 03:19:14;;;;;;;;;;;0.00;86.40;;;;;;5072950;28;19979;-89
2022/12/12 03:21:45;;;;;;;;;;;0.00;87.00;;;;;;5072706;28;20344;-89
2022/12/12 03:24:19;;;;;;;;;;;0.00;88.00;;;;;;5072932;28;19937;-90
2022/12/12 03:26:47;;;;;;;;;;;0.10;87.40;;;;;;5072865;28;19936;-90
2022/12/12 03:29:23;;;;;;;;;;;0.20;86.00;;;;;;5072826;28;20027;-89
2022/12/12 03:31:51;;;;;;;;;;;0.30;86.40;;;;;;5072852;28;19937;-89
2022/12/12 03:34:25;;;;;;;;;;;0.30;86.20;;;;;;5072798;28;19944;-89
2022/12/12 03:36:53;;;;;;;;;;;0.20;85.80;;;;;;5054895;28;20010;-89
2022/12/12 03:39:22;;;;;;;;;;;0.30;84.90;;;;;;5072715;28;19963;-89
2022/12/12 03:41:51;;;;;;;;;;;0.20;84.50;;;;;;5073886;28;19939;-90
2022/12/12 03:44:18;;;;;;;;;;;0.20;84.60;;;;;;5076678;28;19938;-90
2022/12/12 03:46:53;;;;;;;;;;;0.10;84.90;;;;;;5076362;28;20043;-89
2022/12/12 03:49:30;;;;;;;;;;;0.00;85.00;;;;;;5076503;28;19940;-89
2022/12/12 03:51:59;;;;;;;;;;;0.00;84.90;;;;;;5076476;28;19942;-89
2022/12/12 03:54:30;;;;;;;;;;;0.00;84.60;;;;;;5076348;28;19937;-89
2022/12/12 03:56:57;;;;;;;;;;;0.00;84.70;;;;;;5075613;28;20405;-89
2022/12/12 03:59:27;;;;;;;;;;;0.00;84.80;;;;;;5075788;28;19945;-90
2022/12/12 04:01:59;;;;;;;;;;;0.00;84.60;;;;;;5075318;28;20481;-90
2022/12/12 04:04:24;;;;;;;;;;;-3276.70;85.00;;;;;;5075285;28;20405;-89
2022/12/12 04:06:58;;;;;;;;;;;-3276.50;85.10;;;;;;5075202;28;19947;-90
2022/12/12 04:15:07;;;;;;;;;;;0.00;87.60;;;;;;5075258;28;19985;-90
2022/12/12 04:17:38;;;;;;;;;;;0.10;88.00;;;;;;5075514;28;19947;-89
2022/12/12 04:23:27;;;;;;;;;;;0.20;88.10;;;;;;5075982;28;19955;-89
2022/12/12 04:29:12;;;;;;;;;;;0.00;86.60;;;;;;5074377;28;20147;-89
2022/12/12 04:31:40;;;;;;;;;;;-3276.70;85.70;;;;;;5075311;28;19940;-90
2022/12/12 04:34:11;;;;;;;;;;;-3276.50;86.20;;;;;;5075511;28;20328;-90
2022/12/12 04:36:37;;;;;;;;;;;-3276.40;86.90;;;;;;5075220;28;20002;-90
2022/12/12 04:39:04;;;;;;;;;;;-3276.30;87.30;;;;;;5075575;28;19944;-90
2022/12/12 04:41:32;;;;;;;;;;;-3276.20;87.40;;;;;;5075610;28;19939;-90
2022/12/12 04:43:58;;;;;;;;;;;-3276.20;87.40;;;;;;5075518;28;19995;-90
2022/12/12 04:46:25;;;;;;;;;;;-3276.20;87.30;;;;;;5057513;28;19950;-90
2022/12/12 04:48:53;;;;;;;;;;;-3276.10;86.60;;;;;;5075510;28;19945;-90
2022/12/12 04:51:41;;;;;;;;;;;-3276.20;86.10;;;;;;5075421;28;19935;-89
2022/12/12 04:54:19;;;;;;;;;;;-3276.30;85.70;;;;;;5075188;28;19936;-89
2022/12/12 04:56:48;;;;;;;;;;;-3276.40;84.50;;;;;;5057265;28;19955;-90
2022/12/12 04:59:13;;;;;;;;;;;-3276.50;83.30;;;;;;5075366;28;19987;-90
2022/12/12 05:01:45;;;;;;;;;;;-3276.50;84.00;;;;;;5075244;28;19988;-89
2022/12/12 05:04:13;;;;;;;;;;;-3276.50;85.10;;;;;;5075192;28;20015;-88
2022/12/12 05:06:45;;;;;;;;;;;-3276.70;86.10;;;;;;5075121;28;19938;-88
2022/12/12 05:09:12;;;;;;;;;;;-3276.70;84.90;;;;;;5075094;28;20078;-88
2022/12/12 05:11:38;;;;;;;;;;;-3276.70;84.50;;;;;;5075257;28;19940;-88
2022/12/12 05:14:06;;;;;;;;;;;-3276.50;83.90;;;;;;5074911;28;19950;-88
2022/12/12 05:16:34;;;;;;;;;;;-3276.40;84.40;;;;;;5074856;28;19965;-88
2022/12/12 05:18:59;;;;;;;;;;;-3276.40;86.10;;;;;;5075133;28;20039;-88
2022/12/12 05:21:25;;;;;;;;;;;-3276.30;87.30;;;;;;5074662;28;20048;-88
2022/12/12 05:23:50;;;;;;;;;;;-3276.20;87.80;;;;;;5074726;28;19945;-88
2022/12/12 05:26:21;;;;;;;;;;;-3276.10;88.30;;;;;;5056849;28;19941;-88
2022/12/12 05:28:47;;;;;;;;;;;-3276.10;88.40;;;;;;5074662;28;20021;-88
2022/12/12 05:31:13;;;;;;;;;;;-3276.20;88.30;;;;;;5074631;28;20028;-88
2022/12/12 05:33:38;;;;;;;;;;;-3276.20;88.20;;;;;;5074507;28;20379;-88
2022/12/12 05:36:04;;;;;;;;;;;-3276.30;88.20;;;;;;5074429;28;19992;-88
2022/12/12 05:38:29;;;;;;;;;;;-3276.30;88.40;;;;;;5074488;28;19938;-89
2022/12/12 05:40:55;;;;;;;;;;;-3276.20;88.50;;;;;;5074409;28;19937;-88
2022/12/12 05:43:20;;;;;;;;;;;-3276.10;88.70;;;;;;5074379;28;19939;-88
2022/12/12 05:45:46;;;;;;;;;;;-3275.90;88.90;;;;;;5074315;28;19978;-88
2022/12/12 05:48:11;;;;;;;;;;;-3275.80;89.30;;;;;;5074532;28;20037;-89
2022/12/12 05:50:37;;;;;;;;;;;-3275.70;90.00;;;;;;5074465;28;20391;-88
2022/12/12 05:53:02;;;;;;;;;;;-3275.90;90.80;;;;;;5074008;28;19955;-88
2022/12/12 05:55:28;;;;;;;;;;;-3275.80;90.20;;;;;;5074100;28;19969;-88
2022/12/12 05:57:54;;;;;;;;;;;-3275.80;90.00;;;;;;5074087;28;20439;-88
2022/12/12 06:00:19;;;;;;;;;;;-3275.80;90.10;;;;;;5073954;28;19997;-88
2022/12/12 06:02:45;;;;;;;;;;;-3275.80;89.90;;;;;;5072525;28;19952;-88
2022/12/12 06:05:10;;;;;;;;;;;-3275.70;90.10;;;;;;5055015;28;19942;-88
2022/12/12 06:07:36;;;;;;;;;;;-3275.60;90.20;;;;;;5073495;28;19940;-89
2022/12/12 06:10:02;;;;;;;;;;;-3275.60;90.20;;;;;;5072959;28;19947;-88
2022/12/12 06:12:27;;;;;;;;;;;-3275.50;90.00;;;;;;5072306;28;19962;-88
2022/12/12 06:14:53;;;;;;;;;;;-3275.50;89.90;;;;;;5073451;28;19948;-88
2022/12/12 06:17:18;;;;;;;;;;;-3275.50;89.80;;;;;;5072750;28;19942;-89
2022/12/12 06:19:44;;;;;;;;;;;-3275.60;89.70;;;;;;5073258;28;19950;-88
2022/12/12 06:22:09;;;;;;;;;;;-3275.60;89.50;;;;;;5072877;28;19950;-88
2022/12/12 06:24:35;;;;;;;;;;;-3275.70;89.60;;;;;;5073196;28;19950;-88
2022/12/12 06:27:01;;;;;;;;;;;-3275.90;89.00;;;;;;5072897;28;20647;-88
2022/12/12 06:29:26;;;;;;;;;;;-3276.10;88.10;;;;;;5068326;28;20010;-88
2022/12/12 06:31:53;;;;;;;;;;;-3276.30;87.10;;;;;;5065658;28;19979;-88
2022/12/12 06:34:18;;;;;;;;;;;-3276.40;87.00;;;;;;5069572;28;19946;-88
2022/12/12 06:36:44;;;;;;;;;;;-3276.40;86.50;;;;;;5070071;28;19949;-89
2022/12/12 06:39:09;;;;;;;;;;;-3276.50;87.80;;;;;;5064775;28;19942;-89
2022/12/12 06:41:35;;;;;;;;;;;-3276.50;86.40;;;;;;5073323;28;20029;-89
2022/12/12 06:44:01;;;;;;;;;;;-3276.70;86.30;;;;;;5071529;28;20331;-89
2022/12/12 06:46:27;;;;;;;;;;;0.00;86.00;;;;;;5066796;28;19963;-89
2022/12/12 06:48:54;;;;;;;;;;;0.00;85.80;;;;;;5067716;28;20047;-89
2022/12/12 06:51:21;;;;;;;;;;;0.00;85.50;;;;;;5049235;28;19949;-89
2022/12/12 06:53:47;;;;;;;;;;;-3276.50;86.40;;;;;;5051689;28;20036;-89
2022/12/12 06:56:14;;;;;;;;;;;-3276.40;87.40;;;;;;5066931;28;20452;-88
2022/12/12 06:58:39;;;;;;;;;;;-3276.30;88.00;;;;;;5066513;28;19953;-88
2022/12/12 07:01:05;;;;;;;;;;;-3276.40;88.50;;;;;;5067874;28;20398;-89
2022/12/12 07:03:31;;;;;;;;;;;-3276.40;89.40;;;;;;5066160;28;19951;-89
2022/12/12 07:05:56;;;;;;;;;;;-3276.50;89.50;;;;;;5060741;28;19951;-89
2022/12/12 07:08:22;;;;;;;;;;;-3276.50;89.00;;;;;;5063648;28;20082;-88
2022/12/12 07:10:48;;;;;;;;;;;-3276.60;88.90;;;;;;5068368;28;20095;-89
2022/12/12 07:13:13;;;;;;;;;;;-3276.60;89.00;;;;;;5070186;28;19981;-88
2022/12/12 07:15:57;;;;;;;;;;;-3276.60;88.90;;;;;;5064906;28;20214;-89
2022/12/12 07:18:23;;;;;;;;;;;-3276.60;89.50;;;;;;5075256;28;19995;-89
2022/12/12 07:20:48;;;;;;;;;;;-3276.70;89.80;;;;;;5075194;28;19986;-90
2022/12/12 07:23:14;;;;;;;;;;;-3276.70;90.00;;;;;;5075294;28;19947;-90
2022/12/12 07:25:40;;;;;;;;;;;0.00;90.10;;;;;;5072676;28;20393;-89
2022/12/12 07:28:06;;;;;;;;;;;-3276.70;90.00;;;;;;5072570;28;20416;-90
2022/12/12 07:30:32;;;;;;;;;;;-3276.70;90.10;;;;;;5067731;28;19953;-90
2022/12/12 07:32:58;;;;;;;;;;;-3276.70;90.20;;;;;;5074861;28;19948;-90
2022/12/12 07:35:24;;;;;;;;;;;-3276.70;90.30;;;;;;5073473;28;19946;-90
2022/12/12 07:37:49;;;;;;;;;;;0.00;90.20;;;;;;5071951;28;20111;-91
2022/12/12 07:40:15;;;;;;;;;;;0.00;90.10;;;;;;5073444;28;20548;-90
2022/12/12 07:42:41;;;;;;;;;;;0.00;90.10;;;;;;5071779;28;20457;-90
2022/12/12 07:45:07;;;;;;;;;;;0.00;90.20;;;;;;5069465;28;20307;-90
2022/12/12 07:47:32;;;;;;;;;;;0.00;90.40;;;;;;5068237;28;19986;-91
2022/12/12 07:49:58;;;;;;;;;;;0.00;90.70;;;;;;5073089;28;19941;-89
2022/12/12 07:52:23;;;;;;;;;;;0.10;90.70;;;;;;5079004;28;20045;-89
2022/12/12 07:54:49;;;;;;;;;;;0.20;90.60;;;;;;5074111;28;19983;-89
2022/12/12 07:57:14;;;;;;;;;;;0.30;89.60;;;;;;5074196;28;20337;-90
2022/12/12 07:59:40;;;;;;;;;;;0.50;88.90;;;;;;5070647;28;20457;-89
2022/12/12 08:02:06;;;;;;;;;;;0.50;88.30;;;;;;5072812;28;20427;-90
2022/12/12 08:04:31;;;;;;;;;;;0.60;88.00;;;;;;5074230;28;20581;-90
2022/12/12 08:06:57;;;;;;;;;;;0.60;87.40;;;;;;5074707;28;21407;-90
2022/12/12 08:09:23;;;;;;;;;;;0.60;85.90;;;;;;5073066;28;19942;-90
2022/12/12 08:11:49;;;;;;;;;;;0.80;84.90;;;;;;5055822;28;20321;-90
2022/12/12 08:14:14;;;;;;;;;;;0.80;84.40;;;;;;5072611;28;19952;-90
2022/12/12 08:16:40;;;;;;;;;;;0.90;84.20;;;;;;5074755;28;20303;-90
2022/12/12 08:19:06;;;;;;;;;;;0.90;84.00;;;;;;5069252;28;20223;-91
2022/12/12 08:21:32;;;;;;;;;;;0.90;83.80;;;;;;5068799;28;19974;-90
2022/12/12 08:23:58;;;;;;;;;;;0.90;83.90;;;;;;5070729;28;19944;-90
2022/12/12 08:26:27;;;;;;;;;;;1.00;83.80;;;;;;5063776;28;20047;-90
2022/12/12 08:28:53;;;;;;;;;;;1.20;83.40;;;;;;5063830;28;19937;-90
2022/12/12 08:31:20;;;;;;;;;;;1.40;82.50;;;;;;5050347;28;20422;-90
2022/12/12 08:33:46;;;;;;;;;;;1.50;81.40;;;;;;5071230;28;20398;-90
2022/12/12 08:36:12;;;;;;;;;;;1.50;79.80;;;;;;5069949;28;20025;-90
2022/12/12 08:38:38;;;;;;;;;;;1.50;79.20;;;;;;5054210;28;19951;-90
2022/12/12 08:41:04;;;;;;;;;;;1.40;78.50;;;;;;5072332;28;19948;-90
2022/12/12 08:43:29;;;;;;;;;;;1.30;77.60;;;;;;5068945;28;19969;-90
2022/12/12 08:46:01;;;;;;;;;;;1.30;77.90;;;;;;5070989;28;19958;-90
2022/12/12 08:48:27;;;;;;;;;;;1.30;79.30;;;;;;5067343;28;19984;-90
2022/12/12 08:50:53;;;;;;;;;;;1.40;80.30;;;;;;5072118;28;20368;-90
2022/12/12 08:53:18;;;;;;;;;;;1.50;79.80;;;;;;5071541;28;19960;-89
2022/12/12 08:55:44;;;;;;;;;;;1.50;79.80;;;;;;5069258;28;19965;-89
2022/12/12 08:58:10;;;;;;;;;;;1.50;78.10;;;;;;5067632;28;20046;-88
2022/12/12 09:00:35;;;;;;;;;;;1.50;78.80;;;;;;5072748;28;19978;-89
2022/12/12 09:03:01;;;;;;;;;;;1.60;80.00;;;;;;5071321;28;20036;-88
2022/12/12 09:05:27;;;;;;;;;;;2.00;79.50;;;;;;5066955;28;19938;-88
2022/12/12 09:07:53;;;;;;;;;;;2.00;77.70;;;;;;5069867;28;19975;-88
2022/12/12 09:10:18;;;;;;;;;;;2.00;76.70;;;;;;5065730;28;19941;-88
2022/12/12 09:12:44;;;;;;;;;;;2.00;77.10;;;;;;5062025;28;19948;-89
2022/12/12 09:15:09;;;;;;;;;;;2.10;76.20;;;;;;5066197;28;19951;-89
2022/12/12 09:17:35;;;;;;;;;;;2.10;74.50;;;;;;5069496;28;19952;-89
2022/12/12 09:20:00;;;;;;;;;;;2.20;74.00;;;;;;5065948;28;19997;-88
2022/12/12 09:22:26;;;;;;;;;;;2.20;74.40;;;;;;5064637;28;19945;-90
2022/12/12 09:24:51;;;;;;;;;;;2.30;74.90;;;;;;5068740;28;19948;-88
2022/12/12 09:27:17;;;;;;;;;;;2.40;75.10;;;;;;5070705;28;19943;-88
2022/12/12 09:29:43;;;;;;;;;;;2.40;75.60;;;;;;5068692;28;19949;-88
2022/12/12 09:32:08;;;;;;;;;;;2.70;75.00;;;;;;5068495;28;19954;-88
2022/12/12 09:34:35;;;;;;;;;;;2.90;74.50;;;;;;5045265;28;19954;-89
2022/12/12 09:37:01;;;;;;;;;;;3.20;73.20;;;;;;5067317;28;19957;-89
2022/12/12 09:39:26;;;;;;;;;;;3.30;72.20;;;;;;5069853;28;19969;-89
2022/12/12 09:41:52;;;;;;;;;;;3.60;70.10;;;;;;5067990;28;19983;-88
2022/12/12 09:44:21;;;;;;;;;;;3.40;69.40;;;;;;5050735;28;20343;-89
2022/12/12 09:46:50;;;;;;;;;;;3.20;69.00;;;;;;5071027;28;19943;-89
2022/12/12 09:49:21;;;;;;;;;;;3.10;69.80;;;;;;5067451;28;19978;-89
2022/12/12 09:51:48;;;;;;;;;;;3.00;70.30;;;;;;5071276;28;19944;-89
2022/12/12 09:54:16;;;;;;;;;;;3.00;71.60;;;;;;5073047;28;19948;-89
2022/12/12 09:56:50;;;;;;;;;;;3.10;71.50;;;;;;5067437;28;19960;-88
2022/12/12 09:59:25;;;;;;;;;;;3.10;71.70;;;;;;5064828;28;19949;-88
2022/12/12 10:01:58;;;;;;;;;;;3.20;72.00;;;;;;5069443;28;19940;-88
2022/12/12 10:04:24;;;;;;;;;;;3.20;72.00;;;;;;5065898;28;19946;-89
2022/12/12 10:06:53;;;;;;;;;;;3.20;72.80;;;;;;5069765;28;19944;-89
2022/12/12 10:09:33;;;;;;;;;;;3.20;73.10;;;;;;5063754;28;19990;-89
2022/12/12 10:12:00;;;;;;;;;;;3.40;71.40;;;;;;5070904;28;20062;-89
2022/12/12 10:14:37;;;;;;;;;;;3.60;69.70;;;;;;5068786;28;19955;-89
2022/12/12 10:17:05;;;;;;;;;;;3.90;68.30;;;;;;5066052;28;20000;-88
2022/12/12 10:19:33;;;;;;;;;;;4.20;66.90;;;;;;5051304;28;19942;-88
2022/12/12 10:22:02;;;;;;;;;;;4.30;67.60;;;;;;5083274;22;19983;-88
2022/12/12 10:24:28;;;;;;;;;;;4.40;66.70;;;;;;5088475;28;19948;-88
2022/12/12 10:26:54;;;;;;;;;;;4.50;64.70;;;;;;5089054;28;19945;-88
2022/12/12 10:29:24;;;;;;;;;;;4.70;65.30;;;;;;5083126;28;20465;-89
2022/12/12 10:31:58;;;;;;;;;;;4.80;65.30;;;;;;5085477;28;19946;-88
2022/12/12 10:34:42;;;;;;;;;;;4.90;63.80;;;;;;5087574;28;19943;-89
2022/12/12 10:37:07;;;;;;;;;;;5.00;64.60;;;;;;5087384;28;20047;-89
2022/12/12 10:39:52;;;;;;;;;;;5.10;65.40;;;;;;5073141;28;19999;-89
2022/12/12 10:42:17;;;;;;;;;;;5.30;65.30;;;;;;5086431;28;19940;-89
2022/12/12 10:44:55;;;;;;;;;;;5.50;65.10;;;;;;5089070;28;20089;-88
2022/12/12 10:47:20;;;;;;;;;;;5.60;65.80;;;;;;5090724;28;19965;-88
2022/12/12 10:49:46;;;;;;;;;;;5.90;64.00;;;;;;5070363;28;20275;-88
2022/12/12 10:52:16;;;;;;;;;;;6.10;64.20;;;;;;5089103;28;19991;-88
2022/12/12 10:54:47;;;;;;;;;;;6.40;62.50;;;;;;5092043;28;19945;-89
2022/12/12 10:57:23;;;;;;;;;;;6.40;63.10;;;;;;5093136;28;19961;-88
2022/12/12 10:59:50;;;;;;;;;;;6.30;58.70;;;;;;5089639;28;20040;-89
2022/12/12 11:02:26;;;;;;;;;;;6.40;59.00;;;;;;5085675;28;19941;-88
2022/12/12 11:05:03;;;;;;;;;;;6.30;58.40;;;;;;5073847;28;19993;-89
2022/12/12 11:07:29;;;;;;;;;;;6.40;58.30;;;;;;5087234;28;19953;-89
2022/12/12 11:09:57;;;;;;;;;;;6.60;59.20;;;;;;5089204;28;19993;-89
2022/12/12 11:12:30;;;;;;;;;;;6.70;56.90;;;;;;5091505;28;20009;-89
2022/12/12 11:14:59;;;;;;;;;;;6.80;56.90;;;;;;5091722;28;19949;-89
2022/12/12 11:17:25;;;;;;;;;;;7.10;59.30;;;;;;5092532;28;19986;-89
2022/12/12 11:19:51;;;;;;;;;;;7.30;60.90;;;;;;5090093;28;20402;-90
2022/12/12 11:22:17;;;;;;;;;;;7.70;59.00;;;;;;5090618;28;19977;-89
2022/12/12 11:24:45;;;;;;;;;;;8.00;57.10;;;;;;5092642;28;19943;-89
2022/12/12 11:27:29;;;;;;;;;;;8.20;60.70;;;;;;5093095;28;19933;-89
2022/12/12 11:29:58;;;;;;;;;;;8.50;59.80;;;;;;5091866;28;19944;-89
2022/12/12 11:32:26;;;;;;;;;;;8.60;58.30;;;;;;5093048;28;20003;-89
2022/12/12 11:34:53;;;;;;;;;;;8.60;57.20;;;;;;5093059;28;19962;-89
2022/12/12 11:37:20;;;;;;;;;;;8.70;55.60;;;;;;5090769;28;20449;-89
2022/12/12 11:39:48;;;;;;;;;;;8.90;53.80;;;;;;5091464;28;19968;-89
2022/12/12 11:42:14;;;;;;;;;;;9.40;54.30;;;;;;5092881;28;19945;-89
2022/12/12 11:44:41;;;;;;;;;;;9.60;52.40;;;;;;5092004;28;20041;-89
2022/12/12 11:47:27;;;;;;;;;;;10.10;51.20;;;;;;5090605;28;20364;-89
2022/12/12 11:49:57;;;;;;;;;;;11.20;49.90;;;;;;5092286;28;19964;-89
2022/12/12 11:52:26;;;;;;;;;;;12.30;48.20;;;;;;5092782;28;20005;-89
2022/12/12 11:54:52;;;;;;;;;;;13.20;46.40;;;;;;5091631;28;19942;-89
2022/12/12 11:57:30;;;;;;;;;;;13.60;43.90;;;;;;5092731;28;19971;-90
2022/12/12 12:00:05;;;;;;;;;;;14.40;41.00;;;;;;5091533;28;19954;-89
2022/12/12 12:02:30;;;;;;;;;;;15.10;38.90;;;;;;5093386;28;19954;-89
2022/12/12 12:04:58;;;;;;;;;;;14.40;38.60;;;;;;5095674;28;19943;-89
2022/12/12 12:07:30;;;;;;;;;;;13.10;40.20;;;;;;5095508;28;20010;-89
2022/12/12 12:10:00;;;;;;;;;;;12.40;41.70;;;;;;5096188;28;19945;-90
2022/12/12 12:12:44;;;;;;;;;;;11.70;43.50;;;;;;5078288;28;19989;-89
2022/12/12 12:15:26;;;;;;;;;;;11.50;45.30;;;;;;5095048;28;19947;-88
2022/12/12 12:17:54;;;;;;;;;;;11.30;45.10;;;;;;5096163;28;19944;-89
2022/12/12 12:20:38;;;;;;;;;;;11.40;43.90;;;;;;5096274;28;19937;-89
2022/12/12 12:23:22;;;;;;;;;;;11.70;44.60;;;;;;5094898;28;20315;-89
2022/12/12 12:25:48;;;;;;;;;;;13.00;43.10;;;;;;5094890;28;20413;-89
2022/12/12 12:28:19;;;;;;;;;;;14.20;40.90;;;;;;5094216;28;19949;-89
2022/12/12 12:30:48;;;;;;;;;;;14.90;38.70;;;;;;5090531;28;19948;-90
2022/12/12 12:33:16;;;;;;;;;;;15.60;38.30;;;;;;5088499;28;19943;-90
2022/12/12 12:36:00;;;;;;;;;;;16.20;36.60;;;;;;5092434;28;20032;-90
2022/12/12 12:38:38;;;;;;;;;;;16.50;35.60;;;;;;5086934;28;19949;-90
2022/12/12 12:41:22;;;;;;;;;;;16.70;33.80;;;;;;5052815;28;19969;-89
2022/12/12 12:43:53;;;;;;;;;;;15.60;34.70;;;;;;5090443;28;19948;-89
2022/12/12 12:46:37;;;;;;;;;;;14.00;37.60;;;;;;5092851;28;20393;-88
2022/12/12 12:49:24;;;;;;;;;;;12.40;41.80;;;;;;5091359;28;20402;-89
2022/12/12 12:51:53;;;;;;;;;;;11.60;44.90;;;;;;5084101;28;20399;-89
2022/12/12 12:54:45;;;;;;;;;;;11.90;44.60;;;;;;5094183;28;19944;-89
2022/12/12 12:57:16;;;;;;;;;;;12.30;43.50;;;;;;5086741;28;19959;-89
2022/12/12 12:59:53;;;;;;;;;;;13.30;39.20;;;;;;5087671;28;20759;-89
2022/12/12 13:02:29;;;;;;;;;;;14.20;38.30;;;;;;5082596;28;19949;-89
2022/12/12 13:05:15;;;;;;;;;;;14.90;36.10;;;;;;5089057;28;20042;-89
2022/12/12 13:07:59;;;;;;;;;;;15.50;34.70;;;;;;5076014;28;20419;-89
2022/12/12 13:10:26;;;;;;;;;;;16.30;35.30;;;;;;5091967;28;19939;-90
2022/12/12 13:12:52;;;;;;;;;;;16.30;34.90;;;;;;5084228;28;19949;-89
2022/12/12 13:15:24;;;;;;;;;;;15.40;36.60;;;;;;5089249;28;19942;-89
2022/12/12 13:17:56;;;;;;;;;;;14.80;37.80;;;;;;5066503;28;19955;-89
2022/12/12 13:20:24;;;;;;;;;;;14.40;38.80;;;;;;5067748;28;19987;-89
2022/12/12 13:22:52;;;;;;;;;;;14.20;40.80;;;;;;5089464;28;20073;-89
2022/12/12 13:25:36;;;;;;;;;;;14.00;39.60;;;;;;5088419;28;19966;-88
2022/12/12 13:28:04;;;;;;;;;;;13.50;40.00;;;;;;5086986;28;19943;-88
2022/12/12 13:30:32;;;;;;;;;;;13.00;41.80;;;;;;5087795;28;19988;-89
2022/12/12 13:33:04;;;;;;;;;;;13.80;41.60;;;;;;5089018;28;19963;-89
2022/12/12 13:35:33;;;;;;;;;;;14.80;39.80;;;;;;5087651;28;20037;-89
2022/12/12 13:37:59;;;;;;;;;;;14.90;39.30;;;;;;5086760;28;20402;-89
2022/12/12 13:40:29;;;;;;;;;;;15.30;38.30;;;;;;5081491;28;19953;-89
2022/12/12 13:43:02;;;;;;;;;;;15.40;37.10;;;;;;5064701;28;19951;-89
2022/12/12 13:45:34;;;;;;;;;;;15.30;38.50;;;;;;5085752;28;19944;-89
2022/12/12 13:48:01;;;;;;;;;;;15.50;37.80;;;;;;5060813;28;19996;-89
2022/12/12 13:50:27;;;;;;;;;;;15.10;40.10;;;;;;5092788;28;20396;-89
2022/12/12 13:53:19;;;;;;;;;;;14.80;40.40;;;;;;5088961;28;19967;-89
2022/12/12 13:55:44;;;;;;;;;;;14.40;41.00;;;;;;5081650;28;19963;-88
2022/12/12 13:58:31;;;;;;;;;;;14.10;41.50;;;;;;5078320;28;19945;-88
2022/12/12 14:01:15;;;;;;;;;;;13.90;41.10;;;;;;5086032;28;20039;-89
2022/12/12 14:03:44;;;;;;;;;;;14.00;41.30;;;;;;5087242;28;20049;-89
2022/12/12 14:06:11;;;;;;;;;;;14.60;41.30;;;;;;5092197;28;19952;-89
2022/12/12 14:08:37;;;;;;;;;;;15.30;38.90;;;;;;5092325;28;20473;-89
2022/12/12 14:11:05;;;;;;;;;;;15.10;38.70;;;;;;5071952;28;20055;-89
2022/12/12 14:13:38;;;;;;;;;;;15.80;37.50;;;;;;5094572;28;20397;-89
2022/12/12 14:16:06;;;;;;;;;;;16.40;35.60;;;;;;5091657;28;20444;-89
2022/12/12 14:18:34;;;;;;;;;;;16.80;35.30;;;;;;5091055;28;19968;-89
2022/12/12 14:21:08;;;;;;;;;;;16.80;34.40;;;;;;5089846;28;19971;-88
2022/12/12 14:23:47;;;;;;;;;;;14.40;38.70;;;;;;5089840;28;19945;-88
2022/12/12 14:26:27;;;;;;;;;;;12.90;41.50;;;;;;5082901;28;19945;-88
2022/12/12 14:29:11;;;;;;;;;;;12.00;43.60;;;;;;5083879;28;19944;-88
2022/12/12 14:31:40;;;;;;;;;;;11.90;44.80;;;;;;5085244;28;20467;-88
2022/12/12 14:34:18;;;;;;;;;;;11.90;45.60;;;;;;5083555;28;19944;-89
2022/12/12 14:36:43;;;;;;;;;;;11.80;46.00;;;;;;5085100;28;19949;-89
2022/12/12 14:39:14;;;;;;;;;;;11.50;47.20;;;;;;5082378;28;19951;-89
2022/12/12 14:41:40;;;;;;;;;;;12.20;46.20;;;;;;5083572;28;19952;-89
2022/12/12 14:44:12;;;;;;;;;;;12.90;44.40;;;;;;5084744;28;19945;-89